createdAt,value
2023-04-29T00:01:13.893Z,34.03
2023-04-29T00:03:40.721Z,34.92
2023-04-29T00:06:08.009Z,34.92
2023-04-29T00:08:34.835Z,33.95
2023-04-29T00:11:01.536Z,35.83
2023-04-29T00:13:28.215Z,35.17
2023-04-29T00:15:55.003Z,34.97
2023-04-29T00:18:21.952Z,33.80
2023-04-29T00:20:48.733Z,35.40
2023-04-29T00:23:15.538Z,34.13
2023-04-29T00:25:42.276Z,34.22
2023-04-29T00:28:08.972Z,32.28
2023-04-29T00:30:36.479Z,32.58
2023-04-29T00:33:03.963Z,32.20
2023-04-29T00:35:30.933Z,32.45
2023-04-29T00:37:58.230Z,29.55
2023-04-29T00:40:25.130Z,29.73
2023-04-29T00:42:51.900Z,28.73
2023-04-29T00:45:18.710Z,28.02
2023-04-29T00:47:45.541Z,29.30
2023-04-29T00:50:12.649Z,28.88
2023-04-29T00:52:39.905Z,28.92
2023-04-29T00:55:08.860Z,29.10
2023-04-29T00:57:35.662Z,28.23
2023-04-29T01:00:03.578Z,30.15
2023-04-29T01:02:30.634Z,28.63
2023-04-29T01:04:57.686Z,27.52
2023-04-29T01:08:03.826Z,27.83
2023-04-29T01:10:40.124Z,24.13
2023-04-29T01:13:09.233Z,24.70
2023-04-29T01:15:59.013Z,26.00
2023-04-29T01:18:49.757Z,24.60
2023-04-29T01:21:20.117Z,25.02
2023-04-29T01:23:47.195Z,26.95
2023-04-29T01:26:14.803Z,24.65
2023-04-29T01:29:28.591Z,25.92
2023-04-29T01:32:32.334Z,24.25
2023-04-29T01:35:03.114Z,25.45
2023-04-29T01:37:52.181Z,24.23
2023-04-29T01:40:26.608Z,24.88
2023-04-29T01:43:15.759Z,24.40
2023-04-29T01:45:46.594Z,22.58
2023-04-29T01:48:16.256Z,24.00
2023-04-29T01:50:44.544Z,25.92
2023-04-29T01:53:12.555Z,26.63
2023-04-29T01:55:40.094Z,25.95
2023-04-29T01:58:28.357Z,27.45
2023-04-29T02:01:14.208Z,26.45
2023-04-29T02:03:41.468Z,26.27
2023-04-29T02:06:11.676Z,28.70
2023-04-29T02:08:38.799Z,28.48
2023-04-29T02:11:06.656Z,31.77
2023-04-29T02:13:41.554Z,33.33
2023-04-29T02:16:13.471Z,33.05
2023-04-29T02:18:56.969Z,32.00
2023-04-29T02:21:23.902Z,32.45
2023-04-29T02:23:51.551Z,32.05
2023-04-29T02:26:18.292Z,35.35
2023-04-29T02:28:45.005Z,36.00
2023-04-29T02:31:12.398Z,34.30
2023-04-29T02:33:39.175Z,33.60
2023-04-29T02:36:09.377Z,30.75
2023-04-29T02:38:36.023Z,31.50
2023-04-29T02:41:02.942Z,32.15
2023-04-29T02:43:31.186Z,30.05
2023-04-29T02:46:00.283Z,29.75
2023-04-29T02:48:27.315Z,29.15
2023-04-29T02:50:54.123Z,31.15
2023-04-29T02:53:21.893Z,30.13
2023-04-29T02:55:48.686Z,30.42
2023-04-29T02:58:15.702Z,32.65
2023-04-29T03:00:42.617Z,32.10
2023-04-29T03:03:10.757Z,31.08
2023-04-29T03:05:37.631Z,32.05
2023-04-29T03:08:04.706Z,31.77
2023-04-29T03:10:31.817Z,31.58
2023-04-29T03:12:59.140Z,32.47
2023-04-29T03:15:26.093Z,31.27
2023-04-29T03:17:52.923Z,31.70
2023-04-29T03:20:20.345Z,31.20
2023-04-29T03:22:47.092Z,29.17
2023-04-29T03:25:13.803Z,30.60
2023-04-29T03:27:41.934Z,31.13
2023-04-29T03:30:10.153Z,29.75
2023-04-29T03:32:43.204Z,31.52
2023-04-29T03:35:14.147Z,31.77
2023-04-29T03:38:08.032Z,31.08
2023-04-29T03:40:36.251Z,30.85
2023-04-29T03:43:03.632Z,30.90
2023-04-29T03:45:31.087Z,31.02
2023-04-29T03:47:58.103Z,30.13
2023-04-29T03:50:26.004Z,28.73
2023-04-29T03:52:53.089Z,28.83
2023-04-29T03:55:19.982Z,28.27
2023-04-29T03:57:47.569Z,28.50
2023-04-29T04:00:17.035Z,31.23
2023-04-29T04:02:46.934Z,31.95
2023-04-29T04:05:14.673Z,32.00
2023-04-29T04:07:46.813Z,27.23
2023-04-29T04:10:31.872Z,25.38
2023-04-29T04:13:01.305Z,26.83
2023-04-29T04:15:28.098Z,25.27
2023-04-29T04:17:55.436Z,26.60
2023-04-29T04:20:22.256Z,25.63
2023-04-29T04:22:50.137Z,26.08
2023-04-29T04:25:22.076Z,25.05
2023-04-29T04:27:49.852Z,24.92
2023-04-29T04:30:28.889Z,24.98
2023-04-29T04:32:56.043Z,25.10
2023-04-29T04:35:23.254Z,26.40
2023-04-29T04:37:51.319Z,26.45
2023-04-29T04:40:18.623Z,25.45
2023-04-29T04:43:15.553Z,23.58
2023-04-29T04:45:42.996Z,24.02
2023-04-29T04:48:09.790Z,24.05
2023-04-29T04:50:38.836Z,23.65
2023-04-29T04:53:05.809Z,23.63
2023-04-29T04:55:43.875Z,21.83
2023-04-29T04:58:10.709Z,22.92
2023-04-29T05:00:38.905Z,22.52
2023-04-29T05:03:06.091Z,23.30
2023-04-29T05:05:33.828Z,20.75
2023-04-29T05:08:01.147Z,20.75
2023-04-29T05:10:37.864Z,21.45
2023-04-29T05:13:06.471Z,21.83
2023-04-29T05:15:35.521Z,22.05
2023-04-29T05:18:03.701Z,21.00
2023-04-29T05:20:31.178Z,20.58
2023-04-29T05:23:01.006Z,21.63
2023-04-29T05:25:30.228Z,20.55
2023-04-29T05:27:57.485Z,20.13
2023-04-29T05:30:26.252Z,18.52
2023-04-29T05:32:53.161Z,19.67
2023-04-29T05:35:22.082Z,18.60
2023-04-29T05:37:49.499Z,17.77
2023-04-29T05:40:40.915Z,17.92
2023-04-29T05:43:27.529Z,18.05
2023-04-29T05:45:55.348Z,18.30
2023-04-29T05:48:24.783Z,16.05
2023-04-29T05:50:51.665Z,17.80
2023-04-29T05:53:18.505Z,18.25
2023-04-29T05:55:46.446Z,18.52
2023-04-29T05:58:15.028Z,18.20
2023-04-29T06:00:43.834Z,16.90
2023-04-29T06:03:19.367Z,18.10
2023-04-29T06:05:47.782Z,18.52
2023-04-29T06:08:20.887Z,17.77
2023-04-29T06:13:20.517Z,18.23
2023-04-29T06:15:47.410Z,16.25
2023-04-29T06:18:15.497Z,18.55
2023-04-29T06:20:42.952Z,18.67
2023-04-29T06:23:09.811Z,18.45
2023-04-29T06:25:37.178Z,17.45
2023-04-29T06:28:08.364Z,16.25
2023-04-29T06:30:35.474Z,16.73
2023-04-29T06:33:02.344Z,17.13
2023-04-29T06:35:29.193Z,16.75
2023-04-29T06:37:58.770Z,16.95
2023-04-29T06:40:46.486Z,16.42
2023-04-29T06:43:43.120Z,16.83
2023-04-29T06:46:34.779Z,16.77
2023-04-29T06:49:17.097Z,16.60
2023-04-29T06:51:43.905Z,15.50
2023-04-29T06:54:10.837Z,16.40
2023-04-29T06:56:37.624Z,14.90
2023-04-29T06:59:04.541Z,16.58
2023-04-29T07:01:31.388Z,15.52
2023-04-29T07:03:58.745Z,16.38
2023-04-29T07:06:25.920Z,14.57
2023-04-29T07:08:54.815Z,15.38
2023-04-29T07:11:25.034Z,15.82
2023-04-29T07:13:55.451Z,15.88
2023-04-29T07:16:22.354Z,14.70
2023-04-29T07:18:49.714Z,16.15
2023-04-29T07:21:16.509Z,14.10
2023-04-29T07:23:43.784Z,14.98
2023-04-29T07:26:15.984Z,15.05
2023-04-29T07:28:45.680Z,15.35
2023-04-29T07:31:12.504Z,15.07
2023-04-29T07:33:39.361Z,14.73
2023-04-29T07:36:07.393Z,13.82
2023-04-29T07:38:34.899Z,14.68
2023-04-29T07:41:01.806Z,13.10
2023-04-29T07:43:29.118Z,13.73
2023-04-29T07:45:55.951Z,13.38
2023-04-29T07:48:23.208Z,13.15
2023-04-29T07:50:51.041Z,12.18
2023-04-29T07:53:18.493Z,12.77
2023-04-29T07:55:45.495Z,12.63
2023-04-29T07:58:12.483Z,11.70
2023-04-29T08:00:40.275Z,12.25
2023-04-29T08:03:07.566Z,12.48
2023-04-29T08:05:34.631Z,13.23
2023-04-29T08:08:02.248Z,11.00
2023-04-29T08:10:32.553Z,11.85
2023-04-29T08:13:00.510Z,11.27
2023-04-29T08:15:28.601Z,11.25
2023-04-29T08:17:56.502Z,11.90
2023-04-29T08:20:23.574Z,10.38
2023-04-29T08:22:50.403Z,8.95
2023-04-29T08:25:17.680Z,9.07
2023-04-29T08:27:45.788Z,10.70
2023-04-29T08:30:12.948Z,9.77
2023-04-29T08:32:39.803Z,9.48
2023-04-29T08:35:07.165Z,9.13
2023-04-29T08:37:36.278Z,8.82
2023-04-29T08:40:03.856Z,9.90
2023-04-29T08:42:36.537Z,8.70
2023-04-29T08:47:31.750Z,8.43
2023-04-29T08:50:05.789Z,7.72
2023-04-29T08:52:33.062Z,7.97
2023-04-29T08:55:02.397Z,8.85
2023-04-29T08:57:31.260Z,8.07
2023-04-29T09:00:01.183Z,9.15
2023-04-29T09:02:28.958Z,8.32
2023-04-29T09:05:05.941Z,8.90
2023-04-29T09:07:34.231Z,8.20
2023-04-29T09:10:01.954Z,7.72
2023-04-29T09:12:30.470Z,8.98
2023-04-29T09:14:59.814Z,9.18
2023-04-29T09:17:42.553Z,8.50
2023-04-29T09:20:21.577Z,8.45
2023-04-29T09:23:06.282Z,7.72
2023-04-29T09:25:33.132Z,7.53
2023-04-29T09:28:15.749Z,8.00
2023-04-29T09:30:48.222Z,7.35
2023-04-29T09:35:43.861Z,7.90
2023-04-29T09:38:15.818Z,8.20
2023-04-29T09:40:58.287Z,7.30
2023-04-29T09:43:26.257Z,7.53
2023-04-29T09:45:53.427Z,8.68
2023-04-29T09:48:20.258Z,7.45
2023-04-29T09:51:01.493Z,8.23
2023-04-29T09:53:30.383Z,7.18
2023-04-29T09:56:03.652Z,7.63
2023-04-29T09:58:39.670Z,7.07
2023-04-29T10:01:07.366Z,6.97
2023-04-29T10:03:51.227Z,6.80
2023-04-29T10:06:19.141Z,6.38
2023-04-29T10:08:48.018Z,6.22
2023-04-29T10:11:16.291Z,6.75
2023-04-29T10:13:46.163Z,8.02
2023-04-29T10:16:28.208Z,7.65
2023-04-29T10:18:56.455Z,7.70
2023-04-29T10:21:29.043Z,6.82
2023-04-29T10:26:29.077Z,6.80
2023-04-29T10:28:57.432Z,7.35
2023-04-29T10:31:27.742Z,6.80
2023-04-29T10:33:57.698Z,6.75
2023-04-29T10:36:28.423Z,5.75
2023-04-29T10:39:00.933Z,6.53
2023-04-29T10:43:59.366Z,6.88
2023-04-29T10:46:27.216Z,6.53
2023-04-29T10:49:12.242Z,6.78
2023-04-29T10:51:45.946Z,6.53
2023-04-29T10:54:16.955Z,6.90
2023-04-29T10:56:54.296Z,6.97
2023-04-29T10:59:42.365Z,6.50
2023-04-29T11:02:11.151Z,7.22
2023-04-29T11:05:09.177Z,6.75
2023-04-29T11:07:36.406Z,6.30
2023-04-29T11:10:03.630Z,5.55
2023-04-29T11:12:30.387Z,6.32
2023-04-29T11:15:03.237Z,4.63
2023-04-29T11:17:36.482Z,5.72
2023-04-29T11:20:03.914Z,5.45
2023-04-29T11:22:32.100Z,5.72
2023-04-29T11:25:07.125Z,5.97
2023-04-29T11:27:39.818Z,6.07
2023-04-29T11:30:07.689Z,5.85
2023-04-29T11:32:41.190Z,7.07
2023-04-29T11:35:08.561Z,7.32
2023-04-29T11:37:35.542Z,7.50
2023-04-29T11:40:02.788Z,5.75
2023-04-29T11:42:29.580Z,6.28
2023-04-29T11:45:00.603Z,7.10
2023-04-29T11:47:29.618Z,5.90
2023-04-29T11:50:04.111Z,5.80
2023-04-29T11:52:32.845Z,6.25
2023-04-29T11:55:00.517Z,6.70
2023-04-29T11:57:27.548Z,6.25
2023-04-29T11:59:55.750Z,6.38
2023-04-29T12:02:23.842Z,6.88
2023-04-29T12:04:51.032Z,7.38
2023-04-29T12:07:18.126Z,6.35
2023-04-29T12:09:45.449Z,5.70
2023-04-29T12:12:13.745Z,5.68
2023-04-29T12:14:41.449Z,5.03
2023-04-29T12:17:09.974Z,5.57
2023-04-29T12:19:40.154Z,5.50
2023-04-29T12:22:08.327Z,5.78
2023-04-29T12:24:39.676Z,6.32
2023-04-29T12:27:10.944Z,5.97
2023-04-29T12:29:38.765Z,6.18
2023-04-29T12:32:05.612Z,5.15
2023-04-29T12:34:33.474Z,5.38
2023-04-29T12:37:00.816Z,5.32
2023-04-29T12:39:29.906Z,5.00
2023-04-29T12:42:00.282Z,5.20
2023-04-29T12:44:27.419Z,4.38
2023-04-29T12:46:55.710Z,4.40
2023-04-29T12:49:25.600Z,4.13
2023-04-29T12:51:52.576Z,4.70
2023-04-29T12:54:19.308Z,5.40
2023-04-29T12:56:48.397Z,5.22
2023-04-29T12:59:16.051Z,5.13
2023-04-29T13:01:42.936Z,4.93
2023-04-29T13:04:12.229Z,4.63
2023-04-29T13:06:39.624Z,4.95
2023-04-29T13:09:14.650Z,4.75
2023-04-29T13:11:44.800Z,5.43
2023-04-29T13:14:11.735Z,5.32
2023-04-29T13:16:38.823Z,5.03
2023-04-29T13:19:18.800Z,4.80
2023-04-29T13:21:53.053Z,4.57
2023-04-29T13:24:21.003Z,4.70
2023-04-29T13:26:49.652Z,4.43
2023-04-29T13:29:17.682Z,4.95
2023-04-29T13:31:44.553Z,5.13
2023-04-29T13:34:11.402Z,4.45
2023-04-29T13:36:38.638Z,4.63
2023-04-29T13:39:05.354Z,4.30
2023-04-29T13:41:34.990Z,4.38
2023-04-29T13:44:03.062Z,4.90
2023-04-29T13:46:32.528Z,4.15
2023-04-29T13:54:48.245Z,4.38
2023-04-29T13:59:40.130Z,4.25
2023-04-29T14:04:33.099Z,4.63
2023-04-29T14:07:00.138Z,3.88
2023-04-29T14:09:27.120Z,3.70
2023-04-29T14:11:54.022Z,3.28
2023-04-29T14:14:20.975Z,4.00
2023-04-29T14:16:48.026Z,3.53
2023-04-29T14:19:14.880Z,3.80
2023-04-29T14:21:41.646Z,3.30
2023-04-29T14:24:08.488Z,2.97
2023-04-29T14:26:36.707Z,3.50
2023-04-29T14:29:04.557Z,3.60
2023-04-29T14:31:35.641Z,3.47
2023-04-29T14:34:02.636Z,2.50
2023-04-29T14:36:29.387Z,2.75
2023-04-29T14:38:56.386Z,2.17
2023-04-29T14:41:23.637Z,2.72
2023-04-29T14:43:50.546Z,2.85
2023-04-29T14:46:17.627Z,2.97
2023-04-29T14:48:45.651Z,3.20
2023-04-29T14:51:12.681Z,2.72
2023-04-29T14:53:39.415Z,3.45
2023-04-29T14:56:07.986Z,2.70
2023-04-29T14:58:34.774Z,3.72
2023-04-29T15:01:01.623Z,2.70
2023-04-29T15:03:28.532Z,2.88
2023-04-29T15:05:56.220Z,3.25
2023-04-29T15:08:23.207Z,2.92
2023-04-29T15:10:50.066Z,2.97
2023-04-29T15:13:17.054Z,3.17
2023-04-29T15:15:43.758Z,3.85
2023-04-29T15:18:10.490Z,2.83
2023-04-29T15:20:38.005Z,3.30
2023-04-29T15:23:05.679Z,3.25
2023-04-29T15:25:34.292Z,3.03
2023-04-29T15:28:02.566Z,2.63
2023-04-29T15:30:29.499Z,2.20
2023-04-29T15:32:56.326Z,2.28
2023-04-29T15:35:23.176Z,2.25
2023-04-29T15:37:49.972Z,2.20
2023-04-29T15:40:17.535Z,2.47
2023-04-29T15:42:44.412Z,2.38
2023-04-29T15:45:11.576Z,2.05
2023-04-29T15:47:38.449Z,2.10
2023-04-29T15:50:05.877Z,2.47
2023-04-29T15:52:32.759Z,2.25
2023-04-29T15:54:59.579Z,2.17
2023-04-29T15:57:26.674Z,2.05
2023-04-29T15:59:53.693Z,2.03
2023-04-29T16:02:21.014Z,2.28
2023-04-29T16:04:48.007Z,2.08
2023-04-29T16:07:14.799Z,1.88
2023-04-29T16:09:42.433Z,2.70
2023-04-29T16:12:11.523Z,2.20
2023-04-29T16:14:38.355Z,3.00
2023-04-29T16:17:05.908Z,3.30
2023-04-29T16:19:35.187Z,3.72
2023-04-29T16:22:03.566Z,4.38
2023-04-29T16:24:30.287Z,3.17
2023-04-29T16:26:58.794Z,3.70
2023-04-29T16:29:25.843Z,3.28
2023-04-29T16:31:53.093Z,3.72
2023-04-29T16:34:20.190Z,4.30
2023-04-29T16:36:47.169Z,3.78
2023-04-29T16:39:13.962Z,6.50
2023-04-29T16:41:41.004Z,6.75
2023-04-29T16:44:07.799Z,8.43
2023-04-29T16:46:35.082Z,9.25
2023-04-29T16:49:02.113Z,8.88
2023-04-29T16:51:29.287Z,8.25
2023-04-29T16:53:56.102Z,8.50
2023-04-29T16:56:23.027Z,8.00
2023-04-29T16:58:49.928Z,8.15
2023-04-29T17:01:19.664Z,8.20
2023-04-29T17:03:47.525Z,7.30
2023-04-29T17:06:15.572Z,7.05
2023-04-29T17:08:42.945Z,7.53
2023-04-29T17:11:10.381Z,6.28
2023-04-29T17:13:37.157Z,5.63
2023-04-29T17:16:04.178Z,5.93
2023-04-29T17:18:34.132Z,6.13
2023-04-29T17:21:00.863Z,5.68
2023-04-29T17:23:27.550Z,5.80
2023-04-29T17:25:55.330Z,5.00
2023-04-29T17:28:22.315Z,5.20
2023-04-29T17:30:49.419Z,5.07
2023-04-29T17:33:17.578Z,6.07
2023-04-29T17:35:45.239Z,5.18
2023-04-29T17:38:12.105Z,4.47
2023-04-29T17:40:39.133Z,5.10
2023-04-29T17:43:05.830Z,4.40
2023-04-29T17:45:32.804Z,4.72
2023-04-29T17:47:59.610Z,4.53
2023-04-29T17:50:26.348Z,4.30
2023-04-29T17:52:53.015Z,3.63
2023-04-29T17:55:19.900Z,3.63
2023-04-29T17:57:46.671Z,4.32
2023-04-29T18:00:13.806Z,3.97
2023-04-29T18:02:40.916Z,4.18
2023-04-29T18:05:08.013Z,3.58
2023-04-29T18:07:34.753Z,3.25
2023-04-29T18:10:01.845Z,3.28
2023-04-29T18:12:28.986Z,2.90
2023-04-29T18:14:55.757Z,2.90
2023-04-29T18:17:22.711Z,3.10
2023-04-29T18:19:49.742Z,3.20
2023-04-29T18:22:16.713Z,4.10
2023-04-29T18:24:44.610Z,4.30
2023-04-29T18:27:11.425Z,3.33
2023-04-29T18:29:38.394Z,3.45
2023-04-29T18:32:08.124Z,3.10
2023-04-29T18:34:37.762Z,3.30
2023-04-29T18:37:04.617Z,3.38
2023-04-29T18:39:31.335Z,3.40
2023-04-29T18:41:58.259Z,3.70
2023-04-29T18:44:26.113Z,3.47
2023-04-29T18:46:52.923Z,3.53
2023-04-29T18:49:19.618Z,3.50
2023-04-29T18:51:49.068Z,2.72
2023-04-29T18:54:18.034Z,3.88
2023-04-29T18:56:46.832Z,3.90
2023-04-29T18:59:19.179Z,3.25
2023-04-29T19:01:47.174Z,3.55
2023-04-29T19:04:14.512Z,3.75
2023-04-29T19:06:41.966Z,3.38
2023-04-29T19:09:08.913Z,3.67
2023-04-29T19:11:36.155Z,3.55
2023-04-29T19:14:06.308Z,3.50
2023-04-29T19:16:35.517Z,3.97
2023-04-29T19:19:04.380Z,3.45
2023-04-29T19:21:33.219Z,3.22
2023-04-29T19:24:00.626Z,3.38
2023-04-29T19:26:27.453Z,3.95
2023-04-29T19:28:54.261Z,3.53
2023-04-29T19:31:21.746Z,3.53
2023-04-29T19:33:48.787Z,3.70
2023-04-29T19:36:15.513Z,3.83
2023-04-29T19:38:42.274Z,3.85
2023-04-29T19:41:09.446Z,3.72
2023-04-29T19:43:36.223Z,3.17
2023-04-29T19:46:03.041Z,12.40
2023-04-29T19:48:30.008Z,4.60
2023-04-29T19:50:59.478Z,3.95
2023-04-29T19:53:27.200Z,4.28
2023-04-29T19:55:54.262Z,4.07
2023-04-29T19:58:21.076Z,3.67
2023-04-29T20:00:48.433Z,4.20
2023-04-29T20:03:15.924Z,4.43
2023-04-29T20:05:43.204Z,4.25
2023-04-29T20:08:10.018Z,3.97
2023-04-29T20:10:36.800Z,4.10
2023-04-29T20:13:03.556Z,4.10
2023-04-29T20:15:30.860Z,4.03
2023-04-29T20:17:58.166Z,3.88
2023-04-29T20:20:25.789Z,4.07
2023-04-29T20:22:55.422Z,4.07
2023-04-29T20:25:22.180Z,3.80
2023-04-29T20:27:48.943Z,4.15
2023-04-29T20:30:16.097Z,3.78
2023-04-29T20:32:43.658Z,4.22
2023-04-29T20:35:10.438Z,3.55
2023-04-29T20:37:38.312Z,3.30
2023-04-29T20:40:07.506Z,4.05
2023-04-29T20:42:34.166Z,3.83
2023-04-29T20:45:00.847Z,3.03
2023-04-29T20:47:28.484Z,3.25
2023-04-29T20:49:55.550Z,3.22
2023-04-29T20:52:24.901Z,3.33
2023-04-29T20:54:52.528Z,3.20
2023-04-29T20:57:19.329Z,3.35
2023-04-29T20:59:46.252Z,3.50
2023-04-29T21:02:13.581Z,3.50
2023-04-29T21:04:40.573Z,3.28
2023-04-29T21:07:07.733Z,3.00
2023-04-29T21:09:35.748Z,2.97
2023-04-29T21:12:05.361Z,3.10
2023-04-29T21:14:35.548Z,2.80
2023-04-29T21:17:02.398Z,3.33
2023-04-29T21:19:29.156Z,3.17
2023-04-29T21:21:55.836Z,2.92
2023-04-29T21:24:22.627Z,2.70
2023-04-29T21:26:50.596Z,2.95
2023-04-29T21:29:17.369Z,3.00
2023-04-29T21:31:44.220Z,2.90
2023-04-29T21:34:11.075Z,3.08
2023-04-29T21:36:37.785Z,3.53
2023-04-29T21:39:06.094Z,3.45
2023-04-29T21:41:39.641Z,3.63
2023-04-29T21:44:07.394Z,3.28
2023-04-29T21:46:35.735Z,4.13
2023-04-29T21:49:05.201Z,3.95
2023-04-29T21:51:33.551Z,3.67
2023-04-29T21:54:00.359Z,3.50
2023-04-29T21:56:27.211Z,3.67
2023-04-29T21:58:54.072Z,12.07
2023-04-29T22:01:29.359Z,5.65
2023-04-29T22:03:56.978Z,3.70
2023-04-29T22:06:24.406Z,3.60
2023-04-29T22:08:51.485Z,3.90
2023-04-29T22:11:21.736Z,3.22
2023-04-29T22:13:48.855Z,3.40
2023-04-29T22:16:16.539Z,3.53
2023-04-29T22:18:43.338Z,3.80
2023-04-29T22:21:10.153Z,3.67
2023-04-29T22:23:36.876Z,3.63
2023-04-29T22:26:03.636Z,3.92
2023-04-29T22:28:30.662Z,3.25
2023-04-29T22:30:57.518Z,4.03
2023-04-29T22:33:24.197Z,3.97
2023-04-29T22:35:51.093Z,4.15
2023-04-29T22:38:18.048Z,3.92
2023-04-29T22:40:51.311Z,4.50
2023-04-29T22:43:18.722Z,4.28
2023-04-29T22:45:56.053Z,4.85
2023-04-29T22:48:27.326Z,3.92
2023-04-29T22:50:56.244Z,4.18
2023-04-29T22:53:23.354Z,4.30
2023-04-29T22:55:57.998Z,3.97
2023-04-29T22:58:25.856Z,3.83
2023-04-29T23:00:57.026Z,4.15
2023-04-29T23:03:24.462Z,4.85
2023-04-29T23:05:51.851Z,4.10
2023-04-29T23:08:18.611Z,4.70
2023-04-29T23:10:49.310Z,4.60
2023-04-29T23:13:16.521Z,4.63
2023-04-29T23:15:43.536Z,4.80
2023-04-29T23:18:10.472Z,4.93
2023-04-29T23:20:38.734Z,4.70
2023-04-29T23:23:05.978Z,5.00
2023-04-29T23:25:32.694Z,4.97
2023-04-29T23:27:59.620Z,5.28
2023-04-29T23:30:26.708Z,4.47
2023-04-29T23:32:53.472Z,5.40
2023-04-29T23:35:20.456Z,5.82
2023-04-29T23:37:47.333Z,5.25
2023-04-29T23:40:15.780Z,5.00
2023-04-29T23:42:42.712Z,5.40
2023-04-29T23:45:09.811Z,5.20
2023-04-29T23:47:36.518Z,4.63
2023-04-29T23:50:04.090Z,4.75
2023-04-29T23:52:30.970Z,5.63
2023-04-29T23:54:57.836Z,5.20
2023-04-29T23:57:24.758Z,5.13
2023-04-29T23:59:53.004Z,4.28
